createdAt,value
2022-10-02T00:01:28.366Z,1004.93
2022-10-02T00:06:32.495Z,1004.92
2022-10-02T00:11:36.641Z,1005.03
2022-10-02T00:16:39.422Z,1004.96
2022-10-02T00:21:43.027Z,1004.98
2022-10-02T00:26:47.227Z,1005.03
2022-10-02T00:31:51.442Z,1005.06
2022-10-02T00:36:55.547Z,1005.08
2022-10-02T00:41:59.688Z,1005.00
2022-10-02T00:47:03.868Z,1005.09
2022-10-02T00:52:08.018Z,1005.09
2022-10-02T00:57:12.198Z,1005.12
2022-10-02T01:02:16.408Z,1005.15
2022-10-02T01:07:20.500Z,1005.18
2022-10-02T01:12:24.654Z,1005.12
2022-10-02T01:17:28.820Z,1005.13
2022-10-02T01:22:33.007Z,1005.21
2022-10-02T01:27:39.225Z,1005.22
2022-10-02T01:32:41.283Z,1005.29
2022-10-02T01:37:45.463Z,1005.23
2022-10-02T01:42:49.633Z,1005.28
2022-10-02T01:47:53.795Z,1005.39
2022-10-02T01:52:57.931Z,1005.33
2022-10-02T01:58:02.117Z,1005.30
2022-10-02T02:03:04.377Z,1005.30
2022-10-02T02:08:08.542Z,1005.22
2022-10-02T02:13:12.701Z,1005.29
2022-10-02T02:18:16.839Z,1005.21
2022-10-02T02:23:21.000Z,1005.20
2022-10-02T02:28:25.200Z,1005.21
2022-10-02T02:33:29.346Z,1005.32
2022-10-02T02:38:33.483Z,1005.24
2022-10-02T02:43:37.662Z,1005.26
2022-10-02T02:48:41.827Z,1005.18
2022-10-02T02:53:45.955Z,1005.15
2022-10-02T02:58:50.121Z,1005.15
2022-10-02T03:03:54.283Z,1005.26
2022-10-02T03:08:58.440Z,1005.28
2022-10-02T03:14:02.640Z,1005.24
2022-10-02T03:19:06.773Z,1005.25
2022-10-02T03:24:10.934Z,1005.20
2022-10-02T03:34:19.243Z,1005.30
2022-10-02T03:39:25.733Z,1005.19
2022-10-02T03:44:27.569Z,1005.14
2022-10-02T03:49:31.786Z,1005.15
2022-10-02T03:54:34.024Z,1005.16
2022-10-02T03:59:38.223Z,1005.09
2022-10-02T04:04:40.411Z,1005.10
2022-10-02T04:09:44.606Z,1005.15
2022-10-02T04:14:48.784Z,1005.06
2022-10-02T04:19:52.909Z,1005.18
2022-10-02T04:24:57.068Z,1005.18
2022-10-02T04:30:01.218Z,1005.15
2022-10-02T04:35:05.404Z,1005.18
2022-10-02T04:40:09.634Z,1005.29
2022-10-02T04:45:13.732Z,1005.33
2022-10-02T04:50:17.897Z,1005.36
2022-10-02T04:55:22.090Z,1005.34
2022-10-02T05:00:26.210Z,1005.47
2022-10-02T05:05:30.370Z,1005.30
2022-10-02T05:10:34.631Z,1005.32
2022-10-02T05:15:38.664Z,1005.29
2022-10-02T05:20:42.865Z,1005.39
2022-10-02T05:25:46.999Z,1005.53
2022-10-02T05:30:51.165Z,1005.53
2022-10-02T05:35:55.304Z,1005.61
2022-10-02T05:40:59.501Z,1005.48
2022-10-02T05:46:03.663Z,1005.49
2022-10-02T05:51:05.918Z,1005.49
2022-10-02T05:56:10.085Z,1005.61
2022-10-02T06:01:14.327Z,1005.60
2022-10-02T06:06:18.408Z,1005.72
2022-10-02T06:11:22.539Z,1005.72
2022-10-02T06:16:26.752Z,1005.80
2022-10-02T06:21:30.882Z,1005.96
2022-10-02T06:26:37.343Z,1005.93
2022-10-02T06:31:39.325Z,1005.95
2022-10-02T06:36:43.365Z,1005.86
2022-10-02T06:41:47.521Z,1005.91
2022-10-02T06:46:51.690Z,1006.15
2022-10-02T06:51:55.921Z,1006.18
2022-10-02T06:57:00.008Z,1006.06
2022-10-02T07:02:04.169Z,1006.19
2022-10-02T07:07:08.336Z,1006.26
2022-10-02T07:12:12.462Z,1006.38
2022-10-02T07:17:19.298Z,1006.40
2022-10-02T07:22:43.481Z,1006.37
2022-10-02T07:27:24.932Z,1006.37
2022-10-02T07:32:29.115Z,1006.41
2022-10-02T07:37:31.404Z,1006.49
2022-10-02T07:42:35.535Z,1006.64
2022-10-02T07:47:37.850Z,1006.63
2022-10-02T07:52:41.994Z,1006.70
2022-10-02T07:57:44.256Z,1006.71
2022-10-02T08:02:48.526Z,1006.72
2022-10-02T08:07:52.551Z,1006.75
2022-10-02T08:18:16.568Z,1006.74
2022-10-02T08:23:05.076Z,1006.86
2022-10-02T08:28:09.270Z,1006.90
2022-10-02T08:33:13.409Z,1006.84
2022-10-02T08:38:17.553Z,1006.89
2022-10-02T08:43:21.708Z,1006.89
2022-10-02T08:48:25.876Z,1006.83
2022-10-02T08:53:30.004Z,1006.74
2022-10-02T08:58:34.183Z,1006.68
2022-10-02T09:03:38.327Z,1006.79
2022-10-02T09:08:40.611Z,1006.75
2022-10-02T09:13:44.761Z,1006.78
2022-10-02T09:18:48.916Z,1006.83
2022-10-02T09:23:53.103Z,1006.84
2022-10-02T09:28:57.249Z,1006.81
2022-10-02T09:34:01.417Z,1006.93
2022-10-02T09:39:05.563Z,1006.99
2022-10-02T09:44:11.861Z,1007.17
2022-10-02T09:49:11.994Z,1007.08
2022-10-02T09:54:16.199Z,1007.16
2022-10-02T09:59:20.355Z,1007.15
2022-10-02T10:04:24.541Z,1007.19
2022-10-02T10:14:32.805Z,1007.32
2022-10-02T10:19:36.975Z,1007.24
2022-10-02T10:24:41.123Z,1007.26
2022-10-02T10:29:45.413Z,1007.23
2022-10-02T10:34:49.458Z,1007.32
2022-10-02T10:39:53.599Z,1007.42
2022-10-02T10:44:57.769Z,1007.41
2022-10-02T10:50:01.937Z,1007.28
2022-10-02T10:55:06.072Z,1007.45
2022-10-02T11:00:10.263Z,1007.46
2022-10-02T11:05:14.390Z,1007.52
2022-10-02T11:10:18.575Z,1007.54
2022-10-02T11:15:22.746Z,1007.57
2022-10-02T11:20:26.861Z,1007.60
2022-10-02T11:25:52.351Z,1007.73
2022-10-02T11:30:39.445Z,1007.79
2022-10-02T11:35:39.348Z,1007.90
2022-10-02T11:40:41.623Z,1007.76
2022-10-02T11:45:45.923Z,1007.80
2022-10-02T11:50:48.055Z,1007.84
2022-10-02T11:55:52.223Z,1007.84
2022-10-02T12:00:56.371Z,1007.86
2022-10-02T12:06:00.675Z,1007.85
2022-10-02T12:11:04.902Z,1007.81
2022-10-02T12:16:08.936Z,1007.88
2022-10-02T12:21:13.001Z,1007.92
2022-10-02T12:26:17.191Z,1008.00
2022-10-02T12:31:21.410Z,1008.07
2022-10-02T12:36:25.493Z,1008.02
2022-10-02T12:41:29.641Z,1008.07
2022-10-02T12:46:33.800Z,1007.93
2022-10-02T12:51:38.415Z,1008.08
2022-10-02T12:56:42.145Z,1008.07
2022-10-02T13:01:46.466Z,1008.07
2022-10-02T13:06:50.497Z,1007.97
2022-10-02T13:11:56.022Z,1007.94
2022-10-02T13:16:58.843Z,1007.94
2022-10-02T13:22:02.946Z,1007.99
2022-10-02T13:27:07.090Z,1007.98
2022-10-02T13:32:11.238Z,1007.98
2022-10-02T13:37:13.507Z,1007.95
2022-10-02T13:42:17.681Z,1008.01
2022-10-02T13:47:21.870Z,1007.99
2022-10-02T13:52:25.983Z,1008.13
2022-10-02T13:57:30.152Z,1008.20
2022-10-02T14:02:34.297Z,1008.27
2022-10-02T14:07:38.474Z,1008.35
2022-10-02T14:12:42.651Z,1008.32
2022-10-02T14:17:46.795Z,1008.36
2022-10-02T14:22:50.993Z,1008.40
2022-10-02T14:27:55.196Z,1008.41
2022-10-02T14:32:59.302Z,1008.55
2022-10-02T14:38:03.434Z,1008.50
2022-10-02T14:43:07.575Z,1008.49
2022-10-02T14:48:11.791Z,1008.58
2022-10-02T14:53:15.926Z,1008.67
2022-10-02T14:58:20.084Z,1008.72
2022-10-02T15:03:24.259Z,1008.68
2022-10-02T15:08:28.406Z,1008.58
2022-10-02T15:13:32.544Z,1008.61
2022-10-02T15:18:38.416Z,1008.69
2022-10-02T15:23:39.002Z,1008.69
2022-10-02T15:28:43.332Z,1008.74
2022-10-02T15:33:45.425Z,1008.81
2022-10-02T15:38:49.548Z,1008.82
2022-10-02T15:43:51.861Z,1008.87
2022-10-02T15:48:56.009Z,1008.84
2022-10-02T15:53:58.267Z,1008.96
2022-10-02T15:59:02.509Z,1008.94
2022-10-02T16:04:06.588Z,1009.08
2022-10-02T16:09:10.789Z,1009.20
2022-10-02T16:14:14.940Z,1009.28
2022-10-02T16:19:19.068Z,1009.36
2022-10-02T16:24:23.210Z,1009.38
2022-10-02T16:29:27.388Z,1009.51
2022-10-02T16:34:31.553Z,1009.52
2022-10-02T16:39:35.720Z,1009.61
2022-10-02T16:44:39.899Z,1009.72
2022-10-02T16:49:44.051Z,1009.80
2022-10-02T16:54:48.211Z,1009.69
2022-10-02T16:59:52.351Z,1009.84
2022-10-02T17:04:56.512Z,1010.05
2022-10-02T17:10:00.658Z,1010.16
2022-10-02T17:15:04.878Z,1010.32
2022-10-02T17:20:08.978Z,1010.42
2022-10-02T17:25:13.121Z,1010.45
2022-10-02T17:30:17.316Z,1010.61
2022-10-02T17:35:21.584Z,1010.77
2022-10-02T17:40:23.736Z,1010.78
2022-10-02T17:45:27.944Z,1010.92
2022-10-02T17:50:32.130Z,1010.95
2022-10-02T17:55:36.243Z,1011.11
2022-10-02T18:00:38.547Z,1011.19
2022-10-02T18:05:42.659Z,1011.25
2022-10-02T18:10:46.834Z,1011.32
2022-10-02T18:15:50.964Z,1011.43
2022-10-02T18:20:55.106Z,1011.50
2022-10-02T18:25:59.290Z,1011.51
2022-10-02T18:31:03.470Z,1011.60
2022-10-02T18:36:07.618Z,1011.65
2022-10-02T18:41:11.762Z,1011.78
2022-10-02T18:46:16.010Z,1011.87
2022-10-02T18:51:20.107Z,1011.96
2022-10-02T18:56:24.248Z,1011.97
2022-10-02T19:01:28.468Z,1012.11
2022-10-02T19:06:32.688Z,1012.19
2022-10-02T19:11:36.917Z,1012.34
2022-10-02T19:16:40.982Z,1012.44
2022-10-02T19:21:45.093Z,1012.50
2022-10-02T19:26:49.215Z,1012.53
2022-10-02T19:31:53.486Z,1012.65
2022-10-02T19:36:57.546Z,1012.75
2022-10-02T19:42:01.707Z,1012.80
2022-10-02T19:47:03.985Z,1012.90
2022-10-02T19:52:08.150Z,1012.96
2022-10-02T19:57:12.320Z,1012.96
2022-10-02T20:02:14.641Z,1013.07
2022-10-02T20:07:18.829Z,1013.22
2022-10-02T20:12:22.933Z,1013.20
2022-10-02T20:17:27.040Z,1013.28
2022-10-02T20:22:31.211Z,1013.33
2022-10-02T20:27:35.356Z,1013.36
2022-10-02T20:32:39.563Z,1013.52
2022-10-02T20:37:47.746Z,1013.54
2022-10-02T20:42:47.878Z,1013.70
2022-10-02T20:47:52.044Z,1013.76
2022-10-02T20:52:56.206Z,1013.72
2022-10-02T20:58:01.388Z,1013.82
2022-10-02T21:03:04.513Z,1013.94
2022-10-02T21:08:08.704Z,1014.03
2022-10-02T21:13:12.904Z,1014.06
2022-10-02T21:18:16.995Z,1014.16
2022-10-02T21:23:21.155Z,1014.16
2022-10-02T21:28:25.357Z,1014.24
2022-10-02T21:33:29.497Z,1014.21
2022-10-02T21:38:33.659Z,1014.27
2022-10-02T21:43:37.807Z,1014.45
2022-10-02T21:48:40.093Z,1014.43
2022-10-02T21:53:44.230Z,1014.58
2022-10-02T21:58:48.430Z,1014.67
2022-10-02T22:03:50.759Z,1014.65
2022-10-02T22:08:54.842Z,1014.64
2022-10-02T22:13:59.013Z,1014.73
2022-10-02T22:19:03.139Z,1014.81
2022-10-02T22:24:07.340Z,1014.95
2022-10-02T22:29:11.517Z,1014.98
2022-10-02T22:34:17.260Z,1014.98
2022-10-02T22:39:19.780Z,1014.98
2022-10-02T22:44:23.982Z,1015.13
2022-10-02T22:49:28.128Z,1015.10
2022-10-02T22:54:32.346Z,1015.19
2022-10-02T22:59:36.475Z,1015.14
2022-10-02T23:04:40.621Z,1015.12
2022-10-02T23:09:44.818Z,1015.12
2022-10-02T23:14:48.963Z,1015.16
2022-10-02T23:19:53.101Z,1015.12
2022-10-02T23:24:57.286Z,1015.11
2022-10-02T23:30:01.409Z,1015.21
2022-10-02T23:35:05.609Z,1015.16
2022-10-02T23:40:09.764Z,1015.29
2022-10-02T23:45:13.908Z,1015.27
2022-10-02T23:50:16.179Z,1015.25
2022-10-02T23:55:20.405Z,1015.17
